createdAt,value
2019-04-07T00:01:58.687Z,15.43
2019-04-07T00:04:04.592Z,15.20
2019-04-07T00:06:09.685Z,15.90
2019-04-07T00:08:15.130Z,16.10
2019-04-07T00:10:20.515Z,15.53
2019-04-07T00:12:26.465Z,16.00
2019-04-07T00:14:31.986Z,15.20
2019-04-07T00:16:37.362Z,16.47
2019-04-07T00:18:43.166Z,14.90
2019-04-07T00:20:48.485Z,15.20
2019-04-07T00:22:53.506Z,14.03
2019-04-07T00:24:59.537Z,15.47
2019-04-07T00:27:05.675Z,14.40
2019-04-07T00:29:11.242Z,14.70
2019-04-07T00:31:16.180Z,15.37
2019-04-07T00:33:21.994Z,14.33
2019-04-07T00:35:31.491Z,14.50
2019-04-07T00:37:34.187Z,13.43
2019-04-07T00:39:39.067Z,15.13
2019-04-07T00:41:43.928Z,13.23
2019-04-07T00:43:49.522Z,13.73
2019-04-07T00:45:54.681Z,13.77
2019-04-07T00:47:59.601Z,13.70
2019-04-07T00:50:05.439Z,14.07
2019-04-07T00:52:12.044Z,14.00
2019-04-07T00:54:17.248Z,13.63
2019-04-07T00:56:23.489Z,13.27
2019-04-07T00:58:29.017Z,13.57
2019-04-07T01:00:37.718Z,13.03
2019-04-07T01:02:44.136Z,12.73
2019-04-07T01:04:50.638Z,13.63
2019-04-07T01:06:59.191Z,12.23
2019-04-07T01:09:05.849Z,13.13
2019-04-07T01:11:13.540Z,13.13
2019-04-07T01:13:18.835Z,13.33
2019-04-07T01:15:24.279Z,12.93
2019-04-07T01:17:30.243Z,12.40
2019-04-07T01:19:36.546Z,12.43
2019-04-07T01:21:41.940Z,12.90
2019-04-07T01:23:47.156Z,12.73
2019-04-07T01:25:52.643Z,12.60
2019-04-07T01:27:57.866Z,13.07
2019-04-07T01:30:02.923Z,12.03
2019-04-07T01:32:08.093Z,13.07
2019-04-07T01:34:13.822Z,12.50
2019-04-07T01:36:19.233Z,12.80
2019-04-07T01:38:24.190Z,12.93
2019-04-07T01:40:29.875Z,12.43
2019-04-07T01:42:57.863Z,13.20
2019-04-07T01:45:20.620Z,12.10
2019-04-07T01:47:35.399Z,11.37
2019-04-07T01:49:56.575Z,12.17
2019-04-07T01:52:08.932Z,11.67
2019-04-07T01:54:45.689Z,12.07
2019-04-07T01:57:08.008Z,11.53
2019-04-07T01:59:28.974Z,12.20
2019-04-07T02:01:55.776Z,12.10
2019-04-07T02:04:06.794Z,12.77
2019-04-07T02:06:17.828Z,12.67
2019-04-07T02:08:41.821Z,11.87
2019-04-07T02:11:05.073Z,12.00
2019-04-07T02:13:33.900Z,11.43
2019-04-07T02:15:48.401Z,11.43
2019-04-07T02:18:02.526Z,10.80
2019-04-07T02:20:19.158Z,11.07
2019-04-07T02:22:32.930Z,11.83
2019-04-07T02:24:55.448Z,11.87
2019-04-07T02:27:07.661Z,11.47
2019-04-07T02:29:40.884Z,11.13
2019-04-07T02:32:08.150Z,11.23
2019-04-07T02:34:28.335Z,11.57
2019-04-07T02:36:58.685Z,11.50
2019-04-07T02:39:20.096Z,10.37
2019-04-07T02:41:44.197Z,10.70
2019-04-07T02:44:01.611Z,10.83
2019-04-07T02:46:14.877Z,10.57
2019-04-07T02:48:45.154Z,10.33
2019-04-07T02:51:22.693Z,9.67
2019-04-07T02:53:41.089Z,9.97
2019-04-07T02:55:58.359Z,10.93
2019-04-07T02:58:32.684Z,9.80
2019-04-07T03:00:55.705Z,9.93
2019-04-07T03:03:23.406Z,10.00
2019-04-07T03:05:52.370Z,9.93
2019-04-07T03:08:19.362Z,9.67
2019-04-07T03:10:40.571Z,9.50
2019-04-07T03:13:17.042Z,10.00
2019-04-07T03:15:38.741Z,9.33
2019-04-07T03:18:15.206Z,9.60
2019-04-07T03:20:29.704Z,9.30
2019-04-07T03:23:03.574Z,9.70
2019-04-07T03:25:30.995Z,10.23
2019-04-07T03:28:14.498Z,9.43
2019-04-07T03:30:30.471Z,9.50
2019-04-07T03:33:06.034Z,8.43
2019-04-07T03:35:13.134Z,9.50
2019-04-07T03:37:39.062Z,10.27
2019-04-07T03:39:56.819Z,9.53
2019-04-07T03:42:10.740Z,10.13
2019-04-07T03:44:51.084Z,9.87
2019-04-07T03:47:14.511Z,9.73
2019-04-07T03:49:44.420Z,9.57
2019-04-07T03:52:11.866Z,9.37
2019-04-07T03:54:36.661Z,9.20
2019-04-07T03:57:04.815Z,9.67
2019-04-07T03:59:40.918Z,9.77
2019-04-07T04:02:03.578Z,9.00
2019-04-07T04:04:25.620Z,9.03
2019-04-07T04:06:51.806Z,9.83
2019-04-07T04:09:09.817Z,9.93
2019-04-07T04:11:20.402Z,10.60
2019-04-07T04:13:36.005Z,10.70
2019-04-07T04:16:01.049Z,11.20
2019-04-07T04:18:05.980Z,10.23
2019-04-07T04:20:11.049Z,10.37
2019-04-07T04:22:15.913Z,10.27
2019-04-07T04:24:21.577Z,10.43
2019-04-07T04:26:26.924Z,11.77
2019-04-07T04:28:31.913Z,10.07
2019-04-07T04:30:37.294Z,10.30
2019-04-07T04:32:43.651Z,10.30
2019-04-07T04:34:48.680Z,10.53
2019-04-07T04:36:54.502Z,11.77
2019-04-07T04:39:00.544Z,10.00
2019-04-07T04:41:06.900Z,10.77
2019-04-07T04:43:13.722Z,11.30
2019-04-07T04:45:18.781Z,10.33
2019-04-07T04:47:25.135Z,10.20
2019-04-07T04:49:30.862Z,10.43
2019-04-07T04:51:39.296Z,10.07
2019-04-07T04:53:42.616Z,11.40
2019-04-07T04:55:47.769Z,10.40
2019-04-07T04:57:52.757Z,10.73
2019-04-07T04:59:59.229Z,10.73
2019-04-07T05:02:04.575Z,10.70
2019-04-07T05:04:10.096Z,10.73
2019-04-07T05:06:15.398Z,10.90
2019-04-07T05:08:20.553Z,11.80
2019-04-07T05:10:25.572Z,11.63
2019-04-07T05:12:31.352Z,10.87
2019-04-07T05:14:36.560Z,11.23
2019-04-07T05:16:42.495Z,11.83
2019-04-07T05:18:48.159Z,10.70
2019-04-07T05:20:53.176Z,10.60
2019-04-07T05:22:58.650Z,10.33
2019-04-07T05:25:04.129Z,10.90
2019-04-07T05:27:09.713Z,10.63
2019-04-07T05:29:14.852Z,12.67
2019-04-07T05:31:19.984Z,10.80
2019-04-07T05:33:25.496Z,11.83
2019-04-07T05:35:30.697Z,10.77
2019-04-07T05:37:35.712Z,12.37
2019-04-07T05:39:41.149Z,10.93
2019-04-07T05:41:46.523Z,11.20
2019-04-07T05:43:51.460Z,11.67
2019-04-07T05:45:56.680Z,12.17
2019-04-07T05:48:02.183Z,12.13
2019-04-07T05:50:07.674Z,11.90
2019-04-07T05:52:13.032Z,11.50
2019-04-07T05:54:19.780Z,10.97
2019-04-07T05:56:28.154Z,11.67
2019-04-07T05:58:32.306Z,12.10
2019-04-07T06:00:37.296Z,11.43
2019-04-07T06:02:42.931Z,12.47
2019-04-07T06:04:48.423Z,12.20
2019-04-07T06:06:56.194Z,13.10
2019-04-07T06:09:01.531Z,11.50
2019-04-07T06:11:06.758Z,12.43
2019-04-07T06:13:14.609Z,11.97
2019-04-07T06:15:22.238Z,12.47
2019-04-07T06:17:27.525Z,12.13
2019-04-07T06:19:37.469Z,12.27
2019-04-07T06:21:40.050Z,12.47
2019-04-07T06:23:45.447Z,12.33
2019-04-07T06:25:51.105Z,12.80
2019-04-07T06:27:56.858Z,11.93
2019-04-07T06:30:02.462Z,13.70
2019-04-07T06:32:09.855Z,12.13
2019-04-07T06:34:14.203Z,13.10
2019-04-07T06:36:20.270Z,13.30
2019-04-07T06:38:33.089Z,13.13
2019-04-07T06:40:32.370Z,13.33
2019-04-07T06:42:37.703Z,13.17
2019-04-07T06:44:43.506Z,13.57
2019-04-07T06:47:01.578Z,12.97
2019-04-07T06:49:21.954Z,12.30
2019-04-07T06:51:38.971Z,12.90
2019-04-07T06:53:56.907Z,13.63
2019-04-07T06:56:11.263Z,13.63
2019-04-07T06:58:45.018Z,12.57
2019-04-07T07:01:08.704Z,14.07
2019-04-07T07:03:39.014Z,14.07
2019-04-07T07:06:03.552Z,12.87
2019-04-07T07:08:45.064Z,12.93
2019-04-07T07:10:55.224Z,13.77
2019-04-07T07:13:15.581Z,14.23
2019-04-07T07:15:39.644Z,13.03
2019-04-07T07:17:59.291Z,13.13
2019-04-07T07:20:27.721Z,13.47
2019-04-07T07:22:46.738Z,12.90
2019-04-07T07:24:51.266Z,12.03
2019-04-07T07:26:58.063Z,14.07
2019-04-07T07:29:06.216Z,14.10
2019-04-07T07:31:10.432Z,13.93
2019-04-07T07:33:15.560Z,15.43
2019-04-07T07:35:21.131Z,14.90
2019-04-07T07:37:26.850Z,14.70
2019-04-07T07:39:31.875Z,14.47
2019-04-07T07:41:37.805Z,15.37
2019-04-07T07:43:43.515Z,14.20
2019-04-07T07:45:48.664Z,13.93
2019-04-07T07:47:54.991Z,14.17
2019-04-07T07:50:04.798Z,14.33
2019-04-07T07:52:07.316Z,13.57
2019-04-07T07:54:14.168Z,13.93
2019-04-07T07:56:19.194Z,14.07
2019-04-07T07:58:27.943Z,13.23
2019-04-07T08:00:32.074Z,13.13
2019-04-07T08:02:37.457Z,13.07
2019-04-07T08:04:42.406Z,13.00
2019-04-07T08:06:47.932Z,13.10
2019-04-07T08:08:53.708Z,12.70
2019-04-07T08:11:01.496Z,12.70
2019-04-07T08:13:07.550Z,12.80
2019-04-07T08:15:12.681Z,12.47
2019-04-07T08:17:18.365Z,11.73
2019-04-07T08:19:27.877Z,12.33
2019-04-07T08:21:30.571Z,11.90
2019-04-07T08:23:36.205Z,10.33
2019-04-07T08:25:41.505Z,8.60
2019-04-07T08:27:46.634Z,8.73
2019-04-07T08:29:51.576Z,8.77
2019-04-07T08:31:56.641Z,7.00
2019-04-07T08:34:02.385Z,6.50
2019-04-07T08:36:11.158Z,6.60
2019-04-07T08:38:14.043Z,6.03
2019-04-07T08:40:19.873Z,5.87
2019-04-07T08:42:25.273Z,5.77
2019-04-07T08:44:30.791Z,5.53
2019-04-07T08:46:40.920Z,5.90
2019-04-07T08:48:43.501Z,5.97
2019-04-07T08:50:49.650Z,6.00
2019-04-07T08:52:56.395Z,6.23
2019-04-07T08:55:01.869Z,5.43
2019-04-07T08:57:07.206Z,5.77
2019-04-07T08:59:15.798Z,6.10
2019-04-07T09:01:21.080Z,5.97
2019-04-07T09:03:26.144Z,5.43
2019-04-07T09:05:31.454Z,6.33
2019-04-07T09:07:36.725Z,6.17
2019-04-07T09:09:46.584Z,6.03
2019-04-07T09:11:53.034Z,5.90
2019-04-07T09:13:57.056Z,6.37
2019-04-07T09:16:24.683Z,6.03
2019-04-07T09:18:38.912Z,5.60
2019-04-07T09:21:20.465Z,5.83
2019-04-07T09:23:38.144Z,5.90
2019-04-07T09:26:01.586Z,5.77
2019-04-07T09:28:44.338Z,5.87
2019-04-07T09:31:21.117Z,5.83
2019-04-07T09:33:50.290Z,5.67
2019-04-07T09:36:18.001Z,5.13
2019-04-07T09:38:45.925Z,5.23
2019-04-07T09:40:59.488Z,5.50
2019-04-07T09:43:42.788Z,5.43
2019-04-07T09:45:57.284Z,5.73
2019-04-07T09:48:22.920Z,6.07
2019-04-07T09:50:34.697Z,5.53
2019-04-07T09:52:56.579Z,5.10
2019-04-07T09:55:26.283Z,5.27
2019-04-07T09:57:55.998Z,5.03
2019-04-07T10:00:22.858Z,4.90
2019-04-07T10:02:37.311Z,5.87
2019-04-07T10:05:11.374Z,5.22
2019-04-07T10:07:54.372Z,5.00
2019-04-07T10:10:19.191Z,5.60
2019-04-07T10:12:42.572Z,5.47
2019-04-07T10:15:15.727Z,4.87
2019-04-07T10:17:43.109Z,5.63
2019-04-07T10:20:06.522Z,5.83
2019-04-07T10:22:24.148Z,5.00
2019-04-07T10:24:53.583Z,4.67
2019-04-07T10:27:08.203Z,4.47
2019-04-07T10:29:18.791Z,4.35
2019-04-07T10:31:57.939Z,5.05
2019-04-07T10:34:21.479Z,4.53
2019-04-07T10:36:51.635Z,5.03
2019-04-07T10:39:14.624Z,5.25
2019-04-07T10:41:38.264Z,5.17
2019-04-07T10:44:02.822Z,4.95
2019-04-07T10:46:25.955Z,4.60
2019-04-07T10:48:50.124Z,4.80
2019-04-07T10:51:29.333Z,4.55
2019-04-07T10:54:02.628Z,5.03
2019-04-07T10:56:35.894Z,4.67
2019-04-07T10:58:59.504Z,4.72
2019-04-07T11:01:41.830Z,4.55
2019-04-07T11:04:14.893Z,5.33
2019-04-07T11:06:30.644Z,4.53
2019-04-07T11:08:49.758Z,5.35
2019-04-07T11:11:29.416Z,4.80
2019-04-07T11:13:57.781Z,5.05
2019-04-07T11:16:19.014Z,5.47
2019-04-07T11:18:34.820Z,5.67
2019-04-07T11:20:48.876Z,5.90
2019-04-07T11:23:11.967Z,5.78
2019-04-07T11:25:46.144Z,6.12
2019-04-07T11:28:16.549Z,5.33
2019-04-07T11:30:27.299Z,5.33
2019-04-07T11:33:02.772Z,5.80
2019-04-07T11:35:15.646Z,5.72
2019-04-07T11:37:51.775Z,5.53
2019-04-07T11:40:16.102Z,5.85
2019-04-07T11:42:59.255Z,5.75
2019-04-07T11:45:22.705Z,5.72
2019-04-07T11:47:45.966Z,5.87
2019-04-07T11:49:58.261Z,6.03
2019-04-07T11:52:12.491Z,6.12
2019-04-07T11:54:45.816Z,5.97
2019-04-07T11:56:57.336Z,6.15
2019-04-07T11:59:24.167Z,6.00
2019-04-07T12:01:49.855Z,6.65
2019-04-07T12:04:05.760Z,5.92
2019-04-07T12:06:28.105Z,6.25
2019-04-07T12:09:10.880Z,6.50
2019-04-07T12:11:26.639Z,5.35
2019-04-07T12:13:57.053Z,6.53
2019-04-07T12:16:30.833Z,6.30
2019-04-07T12:18:49.139Z,6.03
2019-04-07T12:21:02.604Z,6.15
2019-04-07T12:23:16.014Z,5.97
2019-04-07T12:25:48.225Z,6.10
2019-04-07T12:28:21.462Z,6.05
2019-04-07T12:30:39.053Z,6.12
2019-04-07T12:32:51.776Z,6.20
2019-04-07T12:35:08.740Z,5.78
2019-04-07T12:37:44.598Z,6.10
2019-04-07T12:39:57.904Z,5.92
2019-04-07T12:42:12.380Z,5.60
2019-04-07T12:44:30.023Z,5.72
2019-04-07T12:46:53.801Z,6.45
2019-04-07T12:49:09.375Z,6.92
2019-04-07T12:51:37.494Z,6.62
2019-04-07T12:54:00.321Z,6.20
2019-04-07T12:56:23.165Z,5.55
2019-04-07T12:58:47.225Z,7.45
2019-04-07T13:01:18.782Z,7.05
2019-04-07T13:03:41.502Z,6.80
2019-04-07T13:06:06.905Z,6.40
2019-04-07T13:08:40.425Z,6.45
2019-04-07T13:11:04.713Z,5.83
2019-04-07T13:13:34.188Z,6.17
2019-04-07T13:15:57.098Z,6.80
2019-04-07T13:18:13.409Z,7.15
2019-04-07T13:20:29.271Z,6.65
2019-04-07T13:22:43.574Z,6.50
2019-04-07T13:25:01.751Z,6.55
2019-04-07T13:27:29.744Z,6.55
2019-04-07T13:29:59.750Z,6.10
2019-04-07T13:32:20.690Z,7.17
2019-04-07T13:34:49.749Z,7.03
2019-04-07T13:37:26.519Z,6.40
2019-04-07T13:39:49.611Z,6.10
2019-04-07T13:42:20.787Z,6.67
2019-04-07T13:44:45.713Z,6.65
2019-04-07T13:47:06.377Z,7.22
2019-04-07T13:49:27.896Z,6.47
2019-04-07T13:51:51.382Z,6.50
2019-04-07T13:54:14.659Z,6.78
2019-04-07T13:56:50.668Z,6.78
2019-04-07T13:59:00.933Z,6.97
2019-04-07T14:01:22.134Z,6.85
2019-04-07T14:03:58.560Z,7.17
2019-04-07T14:06:20.538Z,6.83
2019-04-07T14:08:40.457Z,6.80
2019-04-07T14:11:04.462Z,6.80
2019-04-07T14:13:42.624Z,6.53
2019-04-07T14:16:02.916Z,7.17
2019-04-07T14:18:27.737Z,6.78
2019-04-07T14:20:58.426Z,6.72
2019-04-07T14:23:28.640Z,6.97
2019-04-07T14:25:49.417Z,6.75
2019-04-07T14:28:13.000Z,6.80
2019-04-07T14:30:38.339Z,6.85
2019-04-07T14:32:52.077Z,7.05
2019-04-07T14:35:31.551Z,7.53
2019-04-07T14:37:42.939Z,6.70
2019-04-07T14:40:09.623Z,7.80
2019-04-07T14:42:25.324Z,7.92
2019-04-07T14:44:42.633Z,7.08
2019-04-07T14:47:07.635Z,6.87
2019-04-07T14:49:35.733Z,7.83
2019-04-07T14:51:49.955Z,6.95
2019-04-07T14:54:03.175Z,6.62
2019-04-07T14:56:26.274Z,7.08
2019-04-07T14:58:41.234Z,7.17
2019-04-07T15:00:59.157Z,7.53
2019-04-07T15:03:02.126Z,7.22
2019-04-07T15:05:21.737Z,7.42
2019-04-07T15:07:59.450Z,8.13
2019-04-07T15:10:18.032Z,7.58
2019-04-07T15:12:31.769Z,6.95
2019-04-07T15:14:37.351Z,8.38
2019-04-07T15:16:42.814Z,8.08
2019-04-07T15:18:48.181Z,8.08
2019-04-07T15:20:53.700Z,7.42
2019-04-07T15:23:00.285Z,7.85
2019-04-07T15:25:07.710Z,7.62
2019-04-07T15:27:12.949Z,8.45
2019-04-07T15:29:18.498Z,7.05
2019-04-07T15:31:24.853Z,7.92
2019-04-07T15:33:33.059Z,7.25
2019-04-07T15:35:38.283Z,7.78
2019-04-07T15:37:44.564Z,7.92
2019-04-07T15:39:50.547Z,7.87
2019-04-07T15:41:56.574Z,7.53
2019-04-07T15:44:05.393Z,7.78
2019-04-07T15:46:08.468Z,7.80
2019-04-07T15:48:14.618Z,6.85
2019-04-07T15:50:19.964Z,7.28
2019-04-07T15:52:25.121Z,7.58
2019-04-07T15:54:30.579Z,7.62
2019-04-07T15:56:36.759Z,8.23
2019-04-07T15:58:42.594Z,8.55
2019-04-07T16:00:48.594Z,7.97
2019-04-07T16:02:54.864Z,7.78
2019-04-07T16:05:02.414Z,8.03
2019-04-07T16:07:06.498Z,7.75
2019-04-07T16:09:28.431Z,8.20
2019-04-07T16:11:19.078Z,8.35
2019-04-07T16:13:24.960Z,8.40
2019-04-07T16:15:30.774Z,8.28
2019-04-07T16:17:36.079Z,7.05
2019-04-07T16:19:44.996Z,7.67
2019-04-07T16:21:48.261Z,8.13
2019-04-07T16:23:54.322Z,8.15
2019-04-07T16:26:01.109Z,8.47
2019-04-07T16:28:11.349Z,8.00
2019-04-07T16:30:17.432Z,7.80
2019-04-07T16:32:22.096Z,9.13
2019-04-07T16:34:26.971Z,8.00
2019-04-07T16:36:32.553Z,8.28
2019-04-07T16:38:38.559Z,8.95
2019-04-07T16:40:43.526Z,8.20
2019-04-07T16:43:01.276Z,8.63
2019-04-07T16:44:54.939Z,9.38
2019-04-07T16:47:03.890Z,8.85
2019-04-07T16:49:07.793Z,8.00
2019-04-07T16:51:13.909Z,8.55
2019-04-07T16:53:19.081Z,8.15
2019-04-07T16:55:40.389Z,7.65
2019-04-07T16:57:46.350Z,7.85
2019-04-07T16:59:51.966Z,8.38
2019-04-07T17:02:17.915Z,8.65
2019-04-07T17:04:23.436Z,8.48
2019-04-07T17:06:33.760Z,8.08
2019-04-07T17:08:36.354Z,8.20
2019-04-07T17:10:41.657Z,8.55
2019-04-07T17:12:46.522Z,8.23
2019-04-07T17:14:52.181Z,8.33
2019-04-07T17:16:57.965Z,8.43
2019-04-07T17:19:03.017Z,8.83
2019-04-07T17:21:14.114Z,8.05
2019-04-07T17:23:21.604Z,7.80
2019-04-07T17:25:26.917Z,8.10
2019-04-07T17:27:32.632Z,8.30
2019-04-07T17:29:38.408Z,8.60
2019-04-07T17:31:44.447Z,8.07
2019-04-07T17:33:49.625Z,7.97
2019-04-07T17:35:55.371Z,7.73
2019-04-07T17:38:05.369Z,7.73
2019-04-07T17:40:15.649Z,8.17
2019-04-07T17:42:24.868Z,7.80
2019-04-07T17:44:35.130Z,7.57
2019-04-07T17:46:58.941Z,7.90
2019-04-07T17:49:35.725Z,7.93
2019-04-07T17:51:47.483Z,6.97
2019-04-07T17:53:58.021Z,7.97
2019-04-07T17:56:16.601Z,8.67
2019-04-07T17:58:53.483Z,7.90
2019-04-07T18:01:20.592Z,7.83
2019-04-07T18:03:44.167Z,7.97
2019-04-07T18:06:22.797Z,8.70
2019-04-07T18:08:46.652Z,7.97
2019-04-07T18:11:09.859Z,8.10
2019-04-07T18:13:39.796Z,8.40
2019-04-07T18:15:59.813Z,8.80
2019-04-07T18:18:26.039Z,8.00
2019-04-07T18:20:41.687Z,8.50
2019-04-07T18:23:01.287Z,8.67
2019-04-07T18:25:25.182Z,8.00
2019-04-07T18:27:55.507Z,8.40
2019-04-07T18:30:12.120Z,8.47
2019-04-07T18:32:49.400Z,17.47
2019-04-07T18:35:14.131Z,11.27
2019-04-07T18:37:27.488Z,12.53
2019-04-07T18:39:55.101Z,11.50
2019-04-07T18:42:17.427Z,11.43
2019-04-07T18:44:28.391Z,9.63
2019-04-07T18:46:58.834Z,9.30
2019-04-07T18:49:19.168Z,10.07
2019-04-07T18:51:33.642Z,8.83
2019-04-07T18:54:00.361Z,9.43
2019-04-07T18:56:22.638Z,10.13
2019-04-07T18:58:33.236Z,9.73
2019-04-07T19:01:04.488Z,9.83
2019-04-07T19:03:28.471Z,10.70
2019-04-07T19:05:41.214Z,10.43
2019-04-07T19:08:08.168Z,9.77
2019-04-07T19:10:24.181Z,9.37
2019-04-07T19:13:03.110Z,9.93
2019-04-07T19:15:16.058Z,8.60
2019-04-07T19:17:54.828Z,9.60
2019-04-07T19:20:22.886Z,9.57
2019-04-07T19:22:49.089Z,9.13
2019-04-07T19:25:13.111Z,9.63
2019-04-07T19:27:50.394Z,9.13
2019-04-07T19:30:15.789Z,9.70
2019-04-07T19:32:34.859Z,10.63
2019-04-07T19:35:02.166Z,9.37
2019-04-07T19:37:30.389Z,9.93
2019-04-07T19:39:45.274Z,11.13
2019-04-07T19:42:09.091Z,10.07
2019-04-07T19:44:38.975Z,10.60
2019-04-07T19:46:46.892Z,9.70
2019-04-07T19:49:10.390Z,9.47
2019-04-07T19:51:35.967Z,9.57
2019-04-07T19:53:56.489Z,9.07
2019-04-07T19:56:19.581Z,9.63
2019-04-07T19:58:39.309Z,10.07
2019-04-07T20:01:01.210Z,11.18
2019-04-07T20:03:30.635Z,9.93
2019-04-07T20:05:56.126Z,9.93
2019-04-07T20:08:32.338Z,10.97
2019-04-07T20:10:43.409Z,10.60
2019-04-07T20:12:58.438Z,8.90
2019-04-07T20:15:30.463Z,10.60
2019-04-07T20:17:54.940Z,9.67
2019-04-07T20:20:24.630Z,8.97
2019-04-07T20:22:56.983Z,10.00
2019-04-07T20:25:23.451Z,9.63
2019-04-07T20:27:40.576Z,9.43
2019-04-07T20:30:16.203Z,10.23
2019-04-07T20:32:30.600Z,9.23
2019-04-07T20:34:55.516Z,9.87
2019-04-07T20:37:13.144Z,9.30
2019-04-07T20:39:29.477Z,10.17
2019-04-07T20:41:50.267Z,9.57
2019-04-07T20:44:01.189Z,10.17
2019-04-07T20:46:28.193Z,9.90
2019-04-07T20:48:51.909Z,10.07
2019-04-07T20:51:17.661Z,10.13
2019-04-07T20:53:45.163Z,9.63
2019-04-07T20:56:14.397Z,9.97
2019-04-07T20:58:48.339Z,10.27
2019-04-07T21:01:04.525Z,10.73
2019-04-07T21:03:28.835Z,9.53
2019-04-07T21:05:54.470Z,10.13
2019-04-07T21:08:17.193Z,9.83
2019-04-07T21:10:44.328Z,10.53
2019-04-07T21:13:03.390Z,10.00
2019-04-07T21:15:30.004Z,10.90
2019-04-07T21:17:44.974Z,11.20
2019-04-07T21:20:08.333Z,10.83
2019-04-07T21:22:31.621Z,10.60
2019-04-07T21:25:08.174Z,10.73
2019-04-07T21:27:50.684Z,10.67
2019-04-07T21:30:12.853Z,11.03
2019-04-07T21:32:26.894Z,10.40
2019-04-07T21:34:49.996Z,10.53
2019-04-07T21:37:04.793Z,10.90
2019-04-07T21:39:20.890Z,10.67
2019-04-07T21:41:45.154Z,10.43
2019-04-07T21:44:13.351Z,10.87
2019-04-07T21:46:45.134Z,9.23
2019-04-07T21:49:09.771Z,11.00
2019-04-07T21:51:37.781Z,9.77
2019-04-07T21:53:53.076Z,10.30
2019-04-07T21:56:14.360Z,10.50
2019-04-07T21:58:38.129Z,11.13
2019-04-07T22:00:49.783Z,11.30
2019-04-07T22:03:15.818Z,10.70
2019-04-07T22:05:49.019Z,10.47
2019-04-07T22:08:10.528Z,10.23
2019-04-07T22:10:11.661Z,10.70
2019-04-07T22:12:16.848Z,10.37
2019-04-07T22:14:22.841Z,11.10
2019-04-07T22:16:31.465Z,11.20
2019-04-07T22:18:37.520Z,11.13
2019-04-07T22:20:42.204Z,10.90
2019-04-07T22:25:06.095Z,10.67
2019-04-07T22:27:09.208Z,10.47
2019-04-07T22:29:14.456Z,10.50
2019-04-07T22:31:24.845Z,10.87
2019-04-07T22:33:32.333Z,10.63
2019-04-07T22:35:41.206Z,10.57
2019-04-07T22:37:44.061Z,10.87
2019-04-07T22:39:49.205Z,10.63
2019-04-07T22:41:56.131Z,10.63
2019-04-07T22:44:02.827Z,10.60
2019-04-07T22:46:16.949Z,10.73
2019-04-07T22:48:16.701Z,11.77
2019-04-07T22:50:21.989Z,11.20
2019-04-07T22:52:27.866Z,11.47
2019-04-07T22:54:32.902Z,11.33
2019-04-07T22:56:39.637Z,11.07
2019-04-07T22:58:46.486Z,11.07
2019-04-07T23:00:52.201Z,11.60
2019-04-07T23:02:57.262Z,11.37
2019-04-07T23:05:02.999Z,11.50
2019-04-07T23:07:08.256Z,10.00
2019-04-07T23:09:14.020Z,10.77
2019-04-07T23:11:18.999Z,10.30
2019-04-07T23:13:24.221Z,11.07
2019-04-07T23:15:39.520Z,10.97
2019-04-07T23:17:36.438Z,11.33
2019-04-07T23:19:42.016Z,10.47
2019-04-07T23:21:47.105Z,11.53
2019-04-07T23:23:52.068Z,11.17
2019-04-07T23:25:57.758Z,10.87
2019-04-07T23:28:03.827Z,11.53
2019-04-07T23:30:11.577Z,11.53
2019-04-07T23:32:17.049Z,11.80
2019-04-07T23:34:22.116Z,12.33
2019-04-07T23:36:27.172Z,11.20
2019-04-07T23:38:34.437Z,11.70
2019-04-07T23:40:39.889Z,11.30
2019-04-07T23:42:44.788Z,10.90
2019-04-07T23:44:50.052Z,10.77
2019-04-07T23:46:55.277Z,10.70
2019-04-07T23:49:01.513Z,10.03
2019-04-07T23:51:07.064Z,11.37
2019-04-07T23:54:11.200Z,10.60
2019-04-07T23:56:16.198Z,11.27
2019-04-07T23:58:21.049Z,10.27
